createdAt,value
2022-12-05T00:01:32.780Z,48.00
2022-12-05T00:04:02.204Z,30.52
2022-12-05T00:06:31.206Z,51.72
2022-12-05T00:08:59.516Z,32.17
2022-12-05T00:11:29.185Z,31.75
2022-12-05T00:13:59.217Z,50.25
2022-12-05T00:16:28.372Z,30.67
2022-12-05T00:18:56.058Z,53.08
2022-12-05T00:21:26.090Z,36.58
2022-12-05T00:23:55.053Z,44.65
2022-12-05T00:26:23.326Z,30.50
2022-12-05T00:28:51.060Z,51.13
2022-12-05T00:31:22.298Z,48.33
2022-12-05T00:33:50.812Z,39.17
2022-12-05T00:36:19.700Z,55.92
2022-12-05T00:38:47.187Z,32.65
2022-12-05T00:41:20.906Z,47.00
2022-12-05T00:43:48.203Z,51.60
2022-12-05T00:46:19.353Z,39.05
2022-12-05T00:48:47.434Z,43.20
2022-12-05T00:51:20.930Z,58.55
2022-12-05T00:53:48.742Z,45.58
2022-12-05T00:56:20.961Z,36.08
2022-12-05T01:01:19.775Z,46.83
2022-12-05T01:03:47.554Z,37.25
2022-12-05T01:06:16.645Z,50.47
2022-12-05T01:08:44.373Z,36.55
2022-12-05T01:11:14.782Z,40.58
2022-12-05T01:13:42.373Z,33.75
2022-12-05T01:16:23.737Z,35.17
2022-12-05T01:18:51.316Z,30.38
2022-12-05T01:21:20.241Z,36.55
2022-12-05T01:23:47.763Z,35.00
2022-12-05T01:26:17.456Z,37.22
2022-12-05T01:28:45.329Z,37.78
2022-12-05T01:31:25.463Z,55.85
2022-12-05T01:33:54.738Z,40.72
2022-12-05T01:36:23.398Z,36.83
2022-12-05T01:38:51.394Z,34.45
2022-12-05T01:41:21.875Z,34.20
2022-12-05T01:44:03.963Z,46.33
2022-12-05T01:46:34.398Z,50.42
2022-12-05T01:49:24.722Z,45.08
2022-12-05T01:51:56.468Z,34.78
2022-12-05T01:54:24.786Z,31.58
2022-12-05T01:57:04.064Z,34.42
2022-12-05T01:59:36.006Z,34.17
2022-12-05T02:02:04.928Z,35.03
2022-12-05T02:04:38.629Z,38.35
2022-12-05T02:07:06.136Z,31.48
2022-12-05T02:09:33.347Z,37.08
2022-12-05T02:12:03.292Z,35.47
2022-12-05T02:14:33.034Z,31.30
2022-12-05T02:17:11.041Z,33.78
2022-12-05T02:19:56.704Z,38.80
2022-12-05T02:22:48.465Z,31.58
2022-12-05T02:25:43.557Z,33.77
2022-12-05T02:28:28.180Z,30.95
2022-12-05T02:31:16.267Z,36.95
2022-12-05T02:33:51.053Z,32.92
2022-12-05T02:36:45.414Z,30.02
2022-12-05T02:39:19.094Z,30.08
2022-12-05T02:41:55.216Z,32.05
2022-12-05T02:44:32.275Z,33.28
2022-12-05T02:47:00.876Z,30.50
2022-12-05T02:49:32.091Z,33.70
2022-12-05T02:52:02.603Z,30.80
2022-12-05T02:54:35.876Z,31.20
2022-12-05T02:57:04.554Z,32.42
2022-12-05T02:59:32.032Z,33.25
2022-12-05T03:01:59.257Z,32.08
2022-12-05T03:04:29.034Z,36.63
2022-12-05T03:07:12.339Z,30.38
2022-12-05T03:09:46.870Z,32.72
2022-12-05T03:12:31.085Z,31.27
2022-12-05T03:15:24.656Z,33.58
2022-12-05T03:18:06.657Z,34.85
2022-12-05T03:20:42.772Z,37.38
2022-12-05T03:23:46.267Z,31.70
2022-12-05T03:26:21.452Z,29.77
2022-12-05T03:29:08.772Z,31.15
2022-12-05T03:32:01.335Z,35.63
2022-12-05T03:37:05.948Z,28.08
2022-12-05T03:39:36.310Z,30.35
2022-12-05T03:42:13.791Z,31.27
2022-12-05T03:44:57.612Z,29.38
2022-12-05T03:47:48.950Z,30.42
2022-12-05T03:50:24.413Z,29.00
2022-12-05T03:55:54.780Z,30.13
2022-12-05T03:58:28.741Z,29.80
2022-12-05T04:00:59.990Z,30.05
2022-12-05T04:03:39.744Z,28.80
2022-12-05T04:06:21.547Z,28.08
2022-12-05T04:08:55.145Z,27.10
2022-12-05T04:11:27.318Z,26.08
2022-12-05T04:13:59.540Z,26.52
2022-12-05T04:19:29.266Z,25.20
2022-12-05T04:21:57.605Z,28.40
2022-12-05T04:24:51.143Z,25.98
2022-12-05T04:27:59.678Z,26.75
2022-12-05T04:30:40.571Z,26.27
2022-12-05T04:33:17.265Z,25.60
2022-12-05T04:35:56.125Z,32.45
2022-12-05T04:38:39.828Z,23.42
2022-12-05T04:41:14.056Z,25.40
2022-12-05T04:43:44.627Z,25.60
2022-12-05T04:46:15.057Z,26.17
2022-12-05T04:48:45.537Z,31.95
2022-12-05T04:51:19.582Z,25.98
2022-12-05T04:53:50.139Z,25.02
2022-12-05T04:56:19.622Z,24.65
2022-12-05T04:58:46.938Z,31.48
2022-12-05T05:01:36.345Z,25.75
2022-12-05T05:04:27.114Z,24.25
2022-12-05T05:06:54.722Z,24.95
2022-12-05T05:09:21.881Z,21.75
2022-12-05T05:11:49.404Z,24.40
2022-12-05T05:14:16.528Z,23.00
2022-12-05T05:16:44.915Z,22.20
2022-12-05T05:19:12.346Z,24.73
2022-12-05T05:21:42.252Z,22.20
2022-12-05T05:24:11.726Z,32.45
2022-12-05T05:26:41.529Z,25.83
2022-12-05T05:29:09.840Z,25.15
2022-12-05T05:31:38.850Z,24.73
2022-12-05T05:34:09.663Z,23.05
2022-12-05T05:36:38.494Z,24.83
2022-12-05T05:39:09.230Z,26.35
2022-12-05T05:41:36.909Z,24.37
2022-12-05T05:44:05.265Z,29.10
2022-12-05T05:46:34.952Z,25.65
2022-12-05T05:49:02.230Z,24.02
2022-12-05T05:51:30.435Z,26.00
2022-12-05T05:53:58.629Z,24.38
2022-12-05T05:56:27.282Z,27.95
2022-12-05T05:59:02.860Z,26.27
2022-12-05T06:01:30.617Z,23.63
2022-12-05T06:03:58.324Z,24.42
2022-12-05T06:06:26.544Z,23.80
2022-12-05T06:08:54.961Z,24.23
2022-12-05T06:11:26.731Z,25.73
2022-12-05T06:16:29.705Z,29.92
2022-12-05T06:18:58.521Z,25.85
2022-12-05T06:21:26.595Z,24.88
2022-12-05T06:23:54.674Z,22.67
2022-12-05T06:26:22.885Z,25.85
2022-12-05T06:28:50.491Z,25.65
2022-12-05T06:31:21.846Z,27.33
2022-12-05T06:33:49.371Z,28.50
2022-12-05T06:36:19.379Z,26.42
2022-12-05T06:38:46.928Z,27.77
2022-12-05T06:41:17.568Z,25.88
2022-12-05T06:43:45.206Z,28.77
2022-12-05T06:46:14.129Z,24.27
2022-12-05T06:48:41.487Z,25.60
2022-12-05T06:51:13.846Z,25.23
2022-12-05T06:53:41.556Z,24.63
2022-12-05T06:56:12.344Z,27.52
2022-12-05T06:58:40.890Z,26.20
2022-12-05T07:01:31.873Z,23.42
2022-12-05T07:03:59.831Z,23.50
2022-12-05T07:06:28.055Z,28.25
2022-12-05T07:08:55.374Z,27.90
2022-12-05T07:11:22.818Z,28.13
2022-12-05T07:13:49.957Z,29.80
2022-12-05T07:16:17.495Z,29.08
2022-12-05T07:18:44.693Z,30.85
2022-12-05T07:21:14.497Z,30.48
2022-12-05T07:23:44.150Z,27.30
2022-12-05T07:26:18.145Z,27.73
2022-12-05T07:28:45.735Z,27.95
2022-12-05T07:31:16.634Z,28.52
2022-12-05T07:33:44.291Z,30.58
2022-12-05T07:36:15.037Z,28.08
2022-12-05T07:38:43.135Z,31.40
2022-12-05T07:41:22.573Z,29.30
2022-12-05T07:43:54.942Z,29.58
2022-12-05T07:46:23.896Z,27.85
2022-12-05T07:48:51.602Z,28.20
2022-12-05T07:51:20.317Z,28.90
2022-12-05T07:53:48.117Z,26.85
2022-12-05T07:56:17.632Z,30.50
2022-12-05T07:58:47.554Z,27.58
2022-12-05T08:01:17.960Z,33.22
2022-12-05T08:03:46.027Z,26.70
2022-12-05T08:06:18.438Z,25.40
2022-12-05T08:08:50.013Z,25.95
2022-12-05T08:11:22.174Z,24.35
2022-12-05T08:13:50.289Z,29.20
2022-12-05T08:16:21.771Z,28.85
2022-12-05T08:18:49.190Z,28.65
2022-12-05T08:21:19.133Z,28.52
2022-12-05T08:23:46.975Z,26.17
2022-12-05T08:26:17.178Z,26.70
2022-12-05T08:28:44.847Z,27.58
2022-12-05T08:31:18.258Z,26.45
2022-12-05T08:33:46.031Z,29.50
2022-12-05T08:36:15.622Z,27.83
2022-12-05T08:38:44.138Z,30.52
2022-12-05T08:41:16.967Z,27.00
2022-12-05T08:43:44.717Z,26.60
2022-12-05T08:46:12.753Z,26.15
2022-12-05T08:48:40.170Z,26.27
2022-12-05T08:51:10.107Z,27.65
2022-12-05T08:53:44.032Z,26.92
2022-12-05T08:56:12.923Z,29.98
2022-12-05T08:58:40.926Z,26.67
2022-12-05T09:01:38.683Z,28.83
2022-12-05T09:04:07.400Z,26.70
2022-12-05T09:06:35.756Z,27.88
2022-12-05T09:09:07.058Z,30.23
2022-12-05T09:11:38.001Z,28.48
2022-12-05T09:14:05.632Z,26.30
2022-12-05T09:16:38.561Z,31.00
2022-12-05T09:19:27.781Z,26.48
2022-12-05T09:21:55.976Z,28.83
2022-12-05T09:24:23.415Z,26.08
2022-12-05T09:26:50.980Z,24.75
2022-12-05T09:29:18.381Z,24.88
2022-12-05T09:31:49.940Z,28.08
2022-12-05T09:34:18.516Z,29.48
2022-12-05T09:36:55.788Z,30.73
2022-12-05T09:39:25.865Z,33.58
2022-12-05T09:42:19.396Z,35.38
2022-12-05T09:44:46.609Z,30.63
2022-12-05T09:47:23.283Z,31.90
2022-12-05T09:49:57.548Z,33.60
2022-12-05T09:52:31.718Z,32.60
2022-12-05T09:55:09.929Z,30.55
2022-12-05T09:57:43.394Z,32.58
2022-12-05T10:00:12.080Z,34.42
2022-12-05T10:02:54.725Z,31.48
2022-12-05T10:05:34.887Z,32.38
2022-12-05T10:08:07.291Z,34.25
2022-12-05T10:10:56.889Z,31.02
2022-12-05T10:13:40.275Z,31.42
2022-12-05T10:16:39.192Z,33.78
2022-12-05T10:19:32.767Z,29.70
2022-12-05T10:22:09.987Z,29.60
2022-12-05T10:24:42.187Z,32.55
2022-12-05T10:27:27.440Z,32.17
2022-12-05T10:30:02.686Z,31.35
2022-12-05T10:32:55.546Z,33.58
2022-12-05T10:35:28.214Z,31.30
2022-12-05T10:38:00.805Z,31.95
2022-12-05T10:40:38.669Z,32.83
2022-12-05T10:43:08.360Z,32.33
2022-12-05T10:45:45.622Z,33.15
2022-12-05T10:48:16.078Z,29.52
2022-12-05T10:50:45.371Z,33.15
2022-12-05T10:53:17.157Z,31.02
2022-12-05T10:56:28.120Z,34.47
2022-12-05T10:58:38.585Z,32.13
2022-12-05T11:01:13.363Z,34.78
2022-12-05T11:03:43.373Z,36.70
2022-12-05T11:06:24.150Z,37.28
2022-12-05T11:09:18.542Z,37.45
2022-12-05T11:12:06.802Z,38.50
2022-12-05T11:14:36.253Z,36.63
2022-12-05T11:17:05.589Z,32.78
2022-12-05T11:19:36.821Z,33.40
2022-12-05T11:22:08.009Z,34.22
2022-12-05T11:24:38.470Z,27.90
2022-12-05T11:27:27.964Z,32.10
2022-12-05T11:30:15.427Z,30.15
2022-12-05T11:32:42.991Z,26.45
2022-12-05T11:35:13.061Z,28.92
2022-12-05T11:37:55.986Z,28.58
2022-12-05T11:40:42.735Z,31.13
2022-12-05T11:43:22.311Z,26.13
2022-12-05T11:45:58.727Z,27.00
2022-12-05T11:48:39.431Z,24.65
2022-12-05T11:51:06.538Z,23.42
2022-12-05T11:54:00.660Z,26.95
2022-12-05T11:56:58.766Z,30.73
2022-12-05T12:00:03.090Z,27.60
2022-12-05T12:02:57.348Z,27.10
2022-12-05T12:05:42.287Z,24.98
2022-12-05T12:08:25.302Z,24.65
2022-12-05T12:11:08.358Z,24.58
2022-12-05T12:13:47.543Z,27.00
2022-12-05T12:16:30.110Z,30.25
2022-12-05T12:19:05.793Z,28.17
2022-12-05T12:22:01.526Z,28.75
2022-12-05T12:24:28.773Z,25.75
2022-12-05T12:27:02.162Z,29.92
2022-12-05T12:29:32.125Z,27.40
2022-12-05T12:32:25.930Z,27.33
2022-12-05T12:35:23.808Z,26.75
2022-12-05T12:38:24.954Z,28.45
2022-12-05T12:40:55.417Z,30.23
2022-12-05T12:43:54.768Z,29.05
2022-12-05T12:46:25.153Z,30.25
2022-12-05T12:49:36.139Z,31.77
2022-12-05T12:52:23.461Z,30.48
2022-12-05T12:55:12.625Z,28.63
2022-12-05T12:57:58.666Z,28.42
2022-12-05T13:01:04.798Z,29.40
2022-12-05T13:03:41.583Z,26.67
2022-12-05T13:06:14.839Z,29.65
2022-12-05T13:08:49.992Z,26.67
2022-12-05T13:11:19.759Z,28.13
2022-12-05T13:13:51.228Z,31.35
2022-12-05T13:16:45.544Z,32.13
2022-12-05T13:19:41.000Z,29.42
2022-12-05T13:22:08.963Z,30.17
2022-12-05T13:24:36.569Z,33.47
2022-12-05T13:27:14.772Z,32.10
2022-12-05T13:29:50.976Z,30.75
2022-12-05T13:32:37.450Z,33.90
2022-12-05T13:35:07.597Z,35.75
2022-12-05T13:37:55.134Z,39.33
2022-12-05T13:40:52.952Z,38.28
2022-12-05T13:43:29.492Z,34.78
2022-12-05T13:46:06.715Z,35.35
2022-12-05T13:48:38.445Z,34.47
2022-12-05T13:51:13.620Z,35.05
2022-12-05T13:53:43.950Z,31.02
2022-12-05T13:56:14.094Z,30.33
2022-12-05T13:58:52.728Z,35.42
2022-12-05T14:01:48.975Z,33.95
2022-12-05T14:04:44.125Z,36.65
2022-12-05T14:07:12.057Z,32.42
2022-12-05T14:09:51.039Z,35.28
2022-12-05T14:12:18.122Z,38.45
2022-12-05T14:14:58.102Z,36.22
2022-12-05T14:17:31.502Z,38.05
2022-12-05T14:20:43.759Z,33.80
2022-12-05T14:23:16.611Z,31.35
2022-12-05T14:26:08.683Z,35.35
2022-12-05T14:29:01.743Z,35.45
2022-12-05T14:31:44.151Z,32.22
2022-12-05T14:37:03.691Z,34.53
2022-12-05T14:39:35.466Z,34.20
2022-12-05T14:42:18.676Z,34.38
2022-12-05T14:44:48.869Z,36.83
2022-12-05T14:47:23.109Z,35.83
2022-12-05T14:49:58.052Z,37.60
2022-12-05T14:52:28.010Z,38.85
2022-12-05T14:55:09.066Z,38.42
2022-12-05T14:57:47.136Z,35.85
2022-12-05T15:00:22.912Z,34.55
2022-12-05T15:02:55.550Z,35.33
2022-12-05T15:05:33.771Z,39.95
2022-12-05T15:08:03.959Z,37.20
2022-12-05T15:10:38.486Z,39.63
2022-12-05T15:13:14.493Z,39.67
2022-12-05T15:15:52.187Z,37.05
2022-12-05T15:18:24.600Z,36.38
2022-12-05T15:23:49.035Z,41.60
2022-12-05T15:26:45.534Z,37.08
2022-12-05T15:29:18.084Z,38.25
2022-12-05T15:31:46.424Z,37.58
2022-12-05T15:34:22.962Z,41.42
2022-12-05T15:36:57.734Z,40.55
2022-12-05T15:39:28.456Z,42.53
2022-12-05T15:41:57.290Z,38.03
2022-12-05T15:44:34.233Z,39.05
2022-12-05T15:47:04.767Z,48.83
2022-12-05T15:49:32.255Z,41.30
2022-12-05T15:52:18.331Z,43.03
2022-12-05T15:54:47.210Z,43.05
2022-12-05T15:57:41.071Z,42.05
2022-12-05T16:00:17.424Z,42.10
2022-12-05T16:02:47.457Z,40.53
2022-12-05T16:05:30.829Z,44.05
2022-12-05T16:07:58.375Z,40.20
2022-12-05T16:10:29.520Z,39.60
2022-12-05T16:13:04.731Z,42.83
2022-12-05T16:15:33.025Z,43.03
2022-12-05T16:18:02.590Z,38.08
2022-12-05T16:20:35.565Z,40.28
2022-12-05T16:23:05.919Z,39.35
2022-12-05T16:25:35.882Z,38.75
2022-12-05T16:28:18.779Z,39.53
2022-12-05T16:31:01.997Z,41.85
2022-12-05T16:33:30.806Z,44.15
2022-12-05T16:36:14.451Z,43.85
2022-12-05T16:38:43.466Z,42.03
2022-12-05T16:41:15.184Z,40.92
2022-12-05T16:43:45.627Z,43.72
2022-12-05T16:46:13.580Z,50.47
2022-12-05T16:48:44.561Z,40.85
2022-12-05T16:51:15.038Z,47.78
2022-12-05T16:53:46.196Z,38.42
2022-12-05T16:56:20.742Z,41.10
2022-12-05T16:58:48.229Z,42.38
2022-12-05T17:01:22.172Z,39.47
2022-12-05T17:03:49.498Z,37.83
2022-12-05T17:06:21.422Z,37.35
2022-12-05T17:08:49.134Z,37.60
2022-12-05T17:11:16.540Z,34.50
2022-12-05T17:13:45.276Z,38.58
2022-12-05T17:16:12.803Z,39.17
2022-12-05T17:18:40.135Z,38.58
2022-12-05T17:21:14.144Z,41.47
2022-12-05T17:23:44.552Z,37.55
2022-12-05T17:26:17.549Z,39.00
2022-12-05T17:28:45.383Z,38.95
2022-12-05T17:31:17.392Z,41.08
2022-12-05T17:33:46.043Z,43.22
2022-12-05T17:36:14.346Z,40.58
2022-12-05T17:38:41.865Z,37.63
2022-12-05T17:41:16.411Z,39.83
2022-12-05T17:43:44.180Z,39.40
2022-12-05T17:46:20.728Z,42.00
2022-12-05T17:48:49.413Z,38.40
2022-12-05T17:51:18.299Z,41.58
2022-12-05T17:53:45.804Z,39.15
2022-12-05T17:56:14.126Z,47.35
2022-12-05T17:58:42.268Z,41.10
2022-12-05T18:01:19.524Z,38.30
2022-12-05T18:03:48.203Z,42.08
2022-12-05T18:06:16.110Z,41.03
2022-12-05T18:08:45.214Z,38.13
2022-12-05T18:11:14.158Z,45.53
2022-12-05T18:13:41.463Z,40.13
2022-12-05T18:16:09.060Z,43.20
2022-12-05T18:18:36.606Z,42.13
2022-12-05T18:21:12.046Z,41.72
2022-12-05T18:23:40.629Z,40.53
2022-12-05T18:26:09.809Z,38.50
2022-12-05T18:28:39.023Z,44.28
2022-12-05T18:31:08.171Z,40.88
2022-12-05T18:33:39.640Z,40.97
2022-12-05T18:36:12.931Z,42.75
2022-12-05T18:38:40.838Z,51.78
2022-12-05T18:41:08.054Z,42.22
2022-12-05T18:43:36.315Z,40.83
2022-12-05T18:46:04.770Z,43.40
2022-12-05T18:48:46.953Z,42.70
2022-12-05T18:51:17.607Z,42.70
2022-12-05T18:53:51.811Z,40.40
2022-12-05T18:56:24.165Z,51.88
2022-12-05T18:58:54.206Z,40.33
2022-12-05T19:01:21.583Z,58.55
2022-12-05T19:03:50.512Z,39.72
2022-12-05T19:06:23.459Z,42.47
2022-12-05T19:08:54.372Z,47.47
2022-12-05T19:11:22.514Z,43.78
2022-12-05T19:13:54.891Z,40.97
2022-12-05T19:16:22.264Z,45.05
2022-12-05T19:18:54.573Z,41.17
2022-12-05T19:21:26.434Z,47.50
2022-12-05T19:26:22.943Z,42.95
2022-12-05T19:28:50.559Z,42.45
2022-12-05T19:31:20.376Z,55.40
2022-12-05T19:33:50.749Z,44.63
2022-12-05T19:36:21.095Z,47.25
2022-12-05T19:38:50.000Z,45.97
2022-12-05T19:41:20.825Z,46.50
2022-12-05T19:43:48.311Z,41.38
2022-12-05T19:46:33.637Z,47.47
2022-12-05T19:49:08.457Z,46.35
2022-12-05T19:51:35.809Z,55.10
2022-12-05T19:54:05.387Z,50.40
2022-12-05T19:56:34.118Z,51.35
2022-12-05T19:59:01.950Z,49.33
2022-12-05T20:01:31.667Z,44.05
2022-12-05T20:04:08.142Z,44.22
2022-12-05T20:06:44.153Z,48.67
2022-12-05T20:09:13.131Z,54.08
2022-12-05T20:11:43.683Z,51.97
2022-12-05T20:14:13.341Z,59.47
2022-12-05T20:16:41.595Z,46.15
2022-12-05T20:19:09.509Z,48.00
2022-12-05T20:21:40.034Z,53.30
2022-12-05T20:24:08.563Z,48.72
2022-12-05T20:26:38.153Z,66.20
2022-12-05T20:29:06.922Z,56.72
2022-12-05T20:31:39.702Z,47.55
2022-12-05T20:34:09.258Z,51.38
2022-12-05T20:36:36.746Z,55.47
2022-12-05T20:39:11.126Z,47.40
2022-12-05T20:41:38.518Z,52.15
2022-12-05T20:44:08.153Z,53.80
2022-12-05T20:46:36.911Z,51.80
2022-12-05T20:49:04.520Z,56.67
2022-12-05T20:51:33.860Z,49.67
2022-12-05T20:54:03.940Z,49.67
2022-12-05T20:56:33.017Z,46.60
2022-12-05T20:59:05.814Z,41.88
2022-12-05T21:01:35.548Z,46.22
2022-12-05T21:04:05.991Z,41.70
2022-12-05T21:06:36.254Z,42.25
2022-12-05T21:09:06.552Z,42.72
2022-12-05T21:11:33.830Z,41.45
2022-12-05T21:14:01.952Z,39.70
2022-12-05T21:16:29.152Z,37.35
2022-12-05T21:18:58.815Z,41.05
2022-12-05T21:21:28.205Z,42.47
2022-12-05T21:23:58.143Z,41.88
2022-12-05T21:26:27.449Z,39.08
2022-12-05T21:28:55.467Z,44.47
2022-12-05T21:31:28.525Z,40.03
2022-12-05T21:33:59.080Z,39.80
2022-12-05T21:36:28.437Z,50.47
2022-12-05T21:38:56.758Z,50.72
2022-12-05T21:41:25.869Z,57.03
2022-12-05T21:43:55.309Z,51.45
2022-12-05T21:46:24.190Z,56.63
2022-12-05T21:48:51.763Z,68.45
2022-12-05T21:51:18.918Z,48.95
2022-12-05T21:53:46.363Z,47.65
2022-12-05T21:56:18.078Z,55.55
2022-12-05T22:01:21.873Z,57.30
2022-12-05T22:04:00.886Z,63.55
2022-12-05T22:06:30.103Z,54.60
2022-12-05T22:08:57.721Z,54.80
2022-12-05T22:11:25.401Z,53.10
2022-12-05T22:13:53.327Z,60.10
2022-12-05T22:16:21.164Z,65.32
2022-12-05T22:18:49.006Z,67.18
2022-12-05T22:21:21.228Z,58.78
2022-12-05T22:23:49.678Z,54.05
2022-12-05T22:26:20.071Z,67.30
2022-12-05T22:28:50.564Z,62.92
2022-12-05T22:31:18.682Z,53.25
2022-12-05T22:33:46.691Z,53.35
2022-12-05T22:36:16.556Z,49.17
2022-12-05T22:38:45.676Z,60.05
2022-12-05T22:41:19.013Z,65.75
2022-12-05T22:43:48.676Z,67.32
2022-12-05T22:46:18.893Z,76.15
2022-12-05T22:48:48.037Z,54.63
2022-12-05T22:51:16.844Z,69.32
2022-12-05T22:53:44.528Z,67.18
2022-12-05T22:56:14.858Z,67.75
2022-12-05T22:58:42.930Z,60.75
2022-12-05T23:01:18.648Z,65.88
2022-12-05T23:03:47.856Z,72.80
2022-12-05T23:06:17.105Z,62.53
2022-12-05T23:08:47.882Z,72.85
2022-12-05T23:11:18.999Z,65.20
2022-12-05T23:13:48.362Z,59.25
2022-12-05T23:16:21.374Z,52.05
2022-12-05T23:18:55.915Z,66.18
2022-12-05T23:21:27.963Z,87.50
2022-12-05T23:23:59.947Z,54.10
2022-12-05T23:26:34.023Z,56.90
2022-12-05T23:29:01.738Z,55.72
2022-12-05T23:31:29.034Z,68.32
2022-12-05T23:34:02.694Z,57.42
2022-12-05T23:36:32.303Z,69.10
2022-12-05T23:39:00.276Z,68.57
2022-12-05T23:41:27.753Z,59.55
2022-12-05T23:43:56.834Z,63.05
2022-12-05T23:46:26.625Z,72.03
2022-12-05T23:48:55.321Z,58.28
2022-12-05T23:51:25.764Z,49.72
2022-12-05T23:53:56.549Z,63.92
2022-12-05T23:56:26.254Z,64.00
2022-12-05T23:58:55.308Z,57.60
